createdAt,value
2022-08-17T00:00:42.724Z,22.45
2022-08-17T00:05:53.766Z,22.38
2022-08-17T00:10:55.798Z,22.29
2022-08-17T00:16:01.310Z,22.27
2022-08-17T00:21:04.664Z,22.28
2022-08-17T00:26:12.502Z,22.27
2022-08-17T00:31:15.668Z,22.23
2022-08-17T00:36:17.331Z,22.22
2022-08-17T00:41:22.335Z,22.23
2022-08-17T00:46:36.295Z,22.25
2022-08-17T00:51:58.318Z,22.25
2022-08-17T00:57:21.185Z,22.29
2022-08-17T01:02:22.781Z,22.25
2022-08-17T01:07:26.427Z,22.16
2022-08-17T01:12:28.538Z,22.09
2022-08-17T01:17:29.702Z,22.01
2022-08-17T01:22:31.534Z,21.98
2022-08-17T01:27:34.506Z,21.98
2022-08-17T01:32:37.297Z,22.00
2022-08-17T01:37:41.747Z,22.00
2022-08-17T01:42:51.320Z,21.96
2022-08-17T01:47:53.654Z,21.93
2022-08-17T01:52:59.447Z,21.91
2022-08-17T01:58:00.654Z,21.91
2022-08-17T02:03:04.695Z,21.89
2022-08-17T02:08:06.588Z,21.87
2022-08-17T02:13:07.954Z,21.86
2022-08-17T02:18:09.884Z,21.87
2022-08-17T02:23:12.283Z,21.86
2022-08-17T02:28:14.639Z,21.85
2022-08-17T02:33:15.800Z,21.79
2022-08-17T02:38:16.985Z,21.78
2022-08-17T02:43:18.087Z,21.79
2022-08-17T02:48:29.728Z,21.76
2022-08-17T02:53:36.200Z,21.78
2022-08-17T02:58:37.702Z,21.80
2022-08-17T03:03:39.278Z,21.75
2022-08-17T03:08:40.377Z,21.69
2022-08-17T03:13:41.452Z,21.66
2022-08-17T03:18:42.667Z,21.64
2022-08-17T03:23:43.756Z,21.60
2022-08-17T03:28:45.669Z,21.54
2022-08-17T03:33:47.121Z,21.48
2022-08-17T03:38:48.327Z,21.38
2022-08-17T03:43:52.188Z,21.29
2022-08-17T03:49:12.614Z,21.25
2022-08-17T03:54:31.782Z,21.23
2022-08-17T03:59:34.152Z,21.27
2022-08-17T04:04:36.892Z,21.30
2022-08-17T04:09:38.025Z,21.30
2022-08-17T04:14:53.464Z,21.36
2022-08-17T04:19:56.150Z,21.45
2022-08-17T04:24:57.726Z,21.54
2022-08-17T04:30:01.017Z,21.62
2022-08-17T04:35:02.216Z,21.71
2022-08-17T04:40:22.349Z,21.86
2022-08-17T04:45:24.195Z,22.03
2022-08-17T04:50:25.420Z,22.17
2022-08-17T04:55:26.659Z,22.32
2022-08-17T05:00:27.762Z,22.51
2022-08-17T05:05:36.441Z,22.65
2022-08-17T05:10:38.196Z,22.82
2022-08-17T05:15:49.367Z,23.00
2022-08-17T05:20:51.225Z,23.26
2022-08-17T05:25:55.581Z,23.52
2022-08-17T05:30:59.511Z,23.76
2022-08-17T05:36:03.128Z,24.35
2022-08-17T05:41:07.076Z,27.24
2022-08-17T05:46:33.091Z,30.26
2022-08-17T05:51:46.856Z,32.70
2022-08-17T05:57:14.123Z,34.51
2022-08-17T06:02:21.777Z,35.93
2022-08-17T06:07:47.162Z,36.80
2022-08-17T06:13:07.100Z,37.82
2022-08-17T06:18:10.856Z,38.84
2022-08-17T06:23:23.948Z,39.62
2022-08-17T06:28:34.598Z,40.23
2022-08-17T06:33:38.635Z,40.79
2022-08-17T06:38:58.538Z,41.39
2022-08-17T06:44:12.860Z,41.34
2022-08-17T06:49:55.208Z,41.37
2022-08-17T06:55:05.791Z,41.37
2022-08-17T07:00:18.736Z,41.79
2022-08-17T07:05:24.192Z,42.34
2022-08-17T07:10:27.450Z,42.86
2022-08-17T07:15:42.159Z,42.87
2022-08-17T07:20:50.504Z,43.09
2022-08-17T07:25:52.058Z,43.19
2022-08-17T07:30:54.241Z,43.35
2022-08-17T07:35:57.339Z,43.30
2022-08-17T07:41:07.702Z,42.99
2022-08-17T07:46:44.513Z,42.60
2022-08-17T07:51:49.678Z,42.58
2022-08-17T07:57:09.804Z,42.55
2022-08-17T08:02:26.476Z,42.38
2022-08-17T08:07:48.163Z,42.09
2022-08-17T08:13:08.251Z,41.70
2022-08-17T08:18:39.666Z,41.20
2022-08-17T08:23:59.337Z,40.69
2022-08-17T08:29:22.331Z,40.20
2022-08-17T08:35:01.525Z,39.81
2022-08-17T08:40:26.747Z,39.44
2022-08-17T08:45:59.329Z,38.90
2022-08-17T08:51:06.615Z,38.20
2022-08-17T08:57:11.592Z,37.95
2022-08-17T09:02:19.515Z,37.65
2022-08-17T09:07:50.177Z,37.29
2022-08-17T09:13:14.610Z,36.59
2022-08-17T09:19:02.303Z,36.41
2022-08-17T09:24:13.341Z,36.41
2022-08-17T09:29:17.009Z,35.86
2022-08-17T09:34:31.960Z,35.11
2022-08-17T09:40:01.242Z,34.82
2022-08-17T09:45:24.168Z,34.62
2022-08-17T09:50:55.481Z,34.24
2022-08-17T09:56:25.288Z,33.94
2022-08-17T10:01:37.354Z,33.64
2022-08-17T10:06:52.084Z,32.96
2022-08-17T10:12:23.562Z,32.40
2022-08-17T10:18:08.931Z,32.49
2022-08-17T10:23:48.973Z,32.80
2022-08-17T10:29:05.869Z,32.92
2022-08-17T10:34:44.062Z,32.77
2022-08-17T10:40:01.751Z,32.64
2022-08-17T10:45:25.600Z,32.95
2022-08-17T10:51:06.850Z,33.20
2022-08-17T10:56:10.869Z,33.40
2022-08-17T11:01:12.769Z,33.53
2022-08-17T11:06:23.668Z,33.54
2022-08-17T11:11:45.050Z,33.43
2022-08-17T11:17:04.738Z,33.42
2022-08-17T11:22:33.804Z,33.46
2022-08-17T11:27:35.922Z,33.58
2022-08-17T11:32:54.641Z,33.73
2022-08-17T11:38:16.705Z,33.64
2022-08-17T11:43:48.362Z,33.53
2022-08-17T11:49:10.987Z,33.73
2022-08-17T11:54:34.628Z,34.03
2022-08-17T11:59:35.914Z,34.26
2022-08-17T12:04:37.165Z,34.28
2022-08-17T12:09:47.216Z,33.97
2022-08-17T12:15:11.026Z,33.60
2022-08-17T12:20:32.144Z,33.66
2022-08-17T12:25:37.064Z,33.97
2022-08-17T12:30:38.304Z,34.29
2022-08-17T12:35:39.523Z,34.33
2022-08-17T12:40:54.088Z,34.14
2022-08-17T12:46:00.690Z,33.59
2022-08-17T12:51:06.884Z,33.18
2022-08-17T12:56:11.205Z,32.93
2022-08-17T13:01:16.882Z,32.88
2022-08-17T13:06:36.918Z,33.07
2022-08-17T13:11:50.029Z,33.47
2022-08-17T13:16:59.632Z,33.49
2022-08-17T13:22:01.687Z,33.24
2022-08-17T13:27:11.560Z,33.02
2022-08-17T13:32:19.989Z,32.64
2022-08-17T13:37:30.009Z,32.32
2022-08-17T13:42:34.266Z,32.13
2022-08-17T13:48:15.643Z,32.05
2022-08-17T13:53:35.550Z,31.97
2022-08-17T13:58:51.425Z,32.06
2022-08-17T14:03:52.627Z,32.40
2022-08-17T14:08:55.114Z,32.92
2022-08-17T14:13:56.228Z,33.33
2022-08-17T14:18:57.965Z,33.39
2022-08-17T14:23:59.143Z,33.03
2022-08-17T14:29:00.988Z,32.57
2022-08-17T14:34:02.359Z,32.11
2022-08-17T14:39:06.101Z,31.65
2022-08-17T14:44:11.667Z,31.32
2022-08-17T14:49:14.819Z,31.06
2022-08-17T14:54:34.326Z,30.84
2022-08-17T14:59:35.714Z,30.73
2022-08-17T15:04:39.789Z,30.65
2022-08-17T15:09:43.601Z,30.63
2022-08-17T15:14:45.907Z,30.71
2022-08-17T15:19:47.070Z,30.82
2022-08-17T15:24:48.553Z,30.89
2022-08-17T15:29:50.214Z,30.88
2022-08-17T15:34:53.802Z,30.83
2022-08-17T15:39:55.247Z,30.83
2022-08-17T15:44:56.522Z,30.82
2022-08-17T15:50:00.157Z,30.74
2022-08-17T15:55:02.975Z,30.62
2022-08-17T16:00:07.123Z,30.53
2022-08-17T16:05:11.837Z,30.49
2022-08-17T16:10:19.014Z,30.59
2022-08-17T16:15:20.696Z,30.85
2022-08-17T16:20:21.864Z,31.33
2022-08-17T16:25:38.807Z,31.31
2022-08-17T16:30:49.012Z,31.52
2022-08-17T16:35:50.133Z,31.16
2022-08-17T16:40:51.265Z,30.67
2022-08-17T16:45:52.430Z,30.20
2022-08-17T16:51:02.005Z,29.82
2022-08-17T16:56:06.630Z,29.49
2022-08-17T17:01:07.821Z,29.24
2022-08-17T17:06:14.982Z,29.02
2022-08-17T17:11:25.050Z,28.84
2022-08-17T17:16:44.999Z,28.66
2022-08-17T17:22:08.354Z,28.48
2022-08-17T17:27:47.331Z,28.30
2022-08-17T17:32:54.573Z,28.10
2022-08-17T17:37:56.610Z,27.92
2022-08-17T17:43:09.442Z,27.78
2022-08-17T17:48:21.150Z,27.63
2022-08-17T17:53:43.366Z,27.50
2022-08-17T17:58:52.599Z,27.35
2022-08-17T18:04:31.355Z,27.19
2022-08-17T18:10:19.445Z,27.02
2022-08-17T18:15:51.533Z,26.84
2022-08-17T18:21:04.317Z,26.69
2022-08-17T18:26:05.905Z,26.56
2022-08-17T18:31:25.785Z,26.43
2022-08-17T18:36:33.001Z,26.34
2022-08-17T18:41:43.475Z,26.26
2022-08-17T18:46:44.629Z,26.18
2022-08-17T18:51:45.786Z,26.08
2022-08-17T18:57:06.842Z,25.96
2022-08-17T19:02:20.738Z,25.83
2022-08-17T19:07:38.575Z,25.67
2022-08-17T19:13:12.172Z,25.55
2022-08-17T19:18:23.348Z,25.43
2022-08-17T19:23:31.914Z,25.32
2022-08-17T19:28:44.849Z,25.23
2022-08-17T19:33:50.293Z,25.14
2022-08-17T19:39:16.998Z,25.04
2022-08-17T19:44:39.439Z,24.95
2022-08-17T19:50:25.808Z,24.84
2022-08-17T19:55:48.508Z,24.72
2022-08-17T20:00:51.527Z,24.63
2022-08-17T20:06:14.096Z,24.56
2022-08-17T20:11:24.004Z,24.53
2022-08-17T20:16:25.322Z,24.54
2022-08-17T20:21:43.961Z,24.56
2022-08-17T20:26:58.669Z,24.56
2022-08-17T20:32:00.137Z,24.52
2022-08-17T20:37:13.685Z,24.44
2022-08-17T20:42:14.690Z,24.35
2022-08-17T20:47:36.858Z,24.29
2022-08-17T20:52:48.521Z,24.20
2022-08-17T20:57:51.053Z,24.11
2022-08-17T21:03:21.226Z,24.02
2022-08-17T21:08:35.376Z,23.86
2022-08-17T21:13:36.403Z,23.72
2022-08-17T21:19:16.881Z,23.60
2022-08-17T21:24:55.847Z,23.49
2022-08-17T21:30:34.797Z,23.41
2022-08-17T21:36:13.426Z,23.32
2022-08-17T21:41:43.245Z,23.25
2022-08-17T21:46:48.613Z,23.19
2022-08-17T21:51:54.309Z,23.14
2022-08-17T21:56:55.716Z,23.04
2022-08-17T22:01:58.897Z,22.97
2022-08-17T22:07:03.599Z,22.88
2022-08-17T22:12:15.678Z,22.81
2022-08-17T22:17:22.915Z,22.73
2022-08-17T22:23:01.687Z,22.68
2022-08-17T22:28:04.533Z,22.59
2022-08-17T22:33:27.156Z,22.52
2022-08-17T22:38:30.757Z,22.44
2022-08-17T22:43:37.400Z,22.38
2022-08-17T22:48:47.896Z,22.32
2022-08-17T22:54:08.981Z,22.26
2022-08-17T22:59:29.512Z,22.20
2022-08-17T23:04:32.692Z,22.16
2022-08-17T23:09:35.247Z,22.11
2022-08-17T23:14:41.638Z,22.04
2022-08-17T23:19:44.330Z,21.97
2022-08-17T23:24:49.550Z,21.91
2022-08-17T23:29:50.701Z,21.85
2022-08-17T23:34:51.794Z,21.80
2022-08-17T23:39:52.990Z,21.75
2022-08-17T23:44:55.099Z,21.71
2022-08-17T23:49:56.412Z,21.67
2022-08-17T23:55:04.910Z,21.61
